createdAt,value
2022-08-21T00:01:34.155Z,101447.97
2022-08-21T00:04:06.766Z,101443.81
2022-08-21T00:06:33.247Z,101447.03
2022-08-21T00:09:02.991Z,101443.84
2022-08-21T00:11:32.927Z,101439.81
2022-08-21T00:13:59.915Z,101445.38
2022-08-21T00:16:26.282Z,101438.34
2022-08-21T00:18:52.636Z,101436.16
2022-08-21T00:21:20.347Z,101435.34
2022-08-21T00:23:46.708Z,101439.69
2022-08-21T00:26:13.128Z,101431.03
2022-08-21T00:28:39.469Z,101426.84
2022-08-21T00:31:06.104Z,101425.34
2022-08-21T00:33:32.602Z,101426.19
2022-08-21T00:35:59.079Z,101425.66
2022-08-21T00:38:27.115Z,101423.69
2022-08-21T00:40:56.206Z,101421.34
2022-08-21T00:43:24.561Z,101422.81
2022-08-21T00:45:51.358Z,101424.34
2022-08-21T00:48:18.929Z,101422.97
2022-08-21T00:50:48.013Z,101422.97
2022-08-21T00:53:15.722Z,101427.34
2022-08-21T00:55:44.179Z,101416.66
2022-08-21T00:58:11.992Z,101420.16
2022-08-21T01:00:39.854Z,101413.97
2022-08-21T01:03:07.455Z,101420.16
2022-08-21T01:05:35.704Z,101425.50
2022-08-21T01:08:02.210Z,101415.66
2022-08-21T01:10:28.852Z,101418.84
2022-08-21T01:12:59.137Z,101414.50
2022-08-21T01:15:28.336Z,101423.50
2022-08-21T01:17:54.703Z,101419.00
2022-08-21T01:20:21.040Z,101426.19
2022-08-21T01:22:49.127Z,101422.69
2022-08-21T01:25:16.699Z,101424.34
2022-08-21T01:27:43.123Z,101424.34
2022-08-21T01:30:12.343Z,101421.69
2022-08-21T01:32:38.691Z,101416.16
2022-08-21T01:35:06.692Z,101420.69
2022-08-21T01:37:33.116Z,101421.50
2022-08-21T01:40:00.938Z,101412.81
2022-08-21T01:42:27.397Z,101418.31
2022-08-21T01:44:54.710Z,101419.63
2022-08-21T01:47:23.312Z,101421.66
2022-08-21T01:49:50.159Z,101417.31
2022-08-21T01:52:16.931Z,101410.75
2022-08-21T01:54:43.709Z,101411.75
2022-08-21T01:57:12.443Z,101415.44
2022-08-21T01:59:38.762Z,101410.44
2022-08-21T02:02:05.190Z,101414.94
2022-08-21T02:04:31.545Z,101407.78
2022-08-21T02:06:57.979Z,101405.94
2022-08-21T02:09:24.572Z,101405.25
2022-08-21T02:11:51.240Z,101401.59
2022-08-21T02:14:28.622Z,101403.59
2022-08-21T02:17:05.399Z,101400.91
2022-08-21T02:19:40.530Z,101391.22
2022-08-21T02:22:07.363Z,101386.72
2022-08-21T02:24:34.065Z,101387.88
2022-08-21T02:27:00.424Z,101389.88
2022-08-21T02:29:28.119Z,101394.75
2022-08-21T02:31:54.519Z,101387.88
2022-08-21T02:34:20.854Z,101383.84
2022-08-21T02:36:47.204Z,101384.22
2022-08-21T02:39:27.377Z,101391.88
2022-08-21T02:41:54.235Z,101388.69
2022-08-21T02:44:20.567Z,101383.53
2022-08-21T02:46:48.263Z,101386.53
2022-08-21T02:49:14.795Z,101378.00
2022-08-21T02:51:41.354Z,101380.81
2022-08-21T02:54:07.703Z,101387.31
2022-08-21T02:56:34.033Z,101385.69
2022-08-21T02:59:00.371Z,101395.69
2022-08-21T03:01:26.716Z,101391.34
2022-08-21T03:03:54.479Z,101387.16
2022-08-21T03:06:21.852Z,101391.13
2022-08-21T03:08:48.671Z,101390.66
2022-08-21T03:11:15.361Z,101382.13
2022-08-21T03:13:42.218Z,101382.28
2022-08-21T03:16:09.877Z,101389.59
2022-08-21T03:18:36.834Z,101383.63
2022-08-21T03:21:05.739Z,101391.09
2022-08-21T03:23:32.713Z,101386.06
2022-08-21T03:25:59.297Z,101382.91
2022-08-21T03:28:25.681Z,101392.06
2022-08-21T03:30:52.380Z,101390.25
2022-08-21T03:33:20.673Z,101395.38
2022-08-21T03:35:53.386Z,101389.31
2022-08-21T03:38:25.866Z,101390.81
2022-08-21T03:40:53.307Z,101393.41
2022-08-21T03:43:19.710Z,101392.38
2022-08-21T03:45:46.058Z,101398.50
2022-08-21T03:48:13.266Z,101392.44
2022-08-21T03:50:41.475Z,101395.88
2022-08-21T03:53:07.972Z,101398.34
2022-08-21T03:55:44.234Z,101395.97
2022-08-21T03:58:16.644Z,101404.81
2022-08-21T04:00:45.946Z,101396.81
2022-08-21T04:03:12.353Z,101395.97
2022-08-21T04:05:38.711Z,101399.88
2022-08-21T04:08:06.778Z,101398.72
2022-08-21T04:10:34.163Z,101395.03
2022-08-21T04:13:03.749Z,101398.09
2022-08-21T04:15:30.208Z,101405.78
2022-08-21T04:17:56.700Z,101398.28
2022-08-21T04:20:23.302Z,101390.28
2022-08-21T04:22:50.495Z,101390.47
2022-08-21T04:25:16.940Z,101387.78
2022-08-21T04:27:43.521Z,101391.59
2022-08-21T04:30:12.694Z,101394.44
2022-08-21T04:32:39.593Z,101392.91
2022-08-21T04:35:07.330Z,101385.91
2022-08-21T04:37:33.680Z,101395.72
2022-08-21T04:40:00.091Z,101392.38
2022-08-21T04:42:27.098Z,101392.56
2022-08-21T04:44:53.468Z,101398.03
2022-08-21T04:47:21.410Z,101393.53
2022-08-21T04:49:48.085Z,101398.72
2022-08-21T04:52:16.979Z,101398.72
2022-08-21T04:54:44.913Z,101404.41
2022-08-21T04:57:11.303Z,101413.78
2022-08-21T04:59:39.066Z,101407.13
2022-08-21T05:02:06.104Z,101410.16
2022-08-21T05:04:35.205Z,101417.34
2022-08-21T05:07:04.652Z,101416.22
2022-08-21T05:09:31.123Z,101414.91
2022-08-21T05:11:57.565Z,101417.97
2022-08-21T05:14:24.006Z,101411.31
2022-08-21T05:16:50.381Z,101417.84
2022-08-21T05:19:16.722Z,101420.03
2022-08-21T05:21:45.343Z,101408.22
2022-08-21T05:24:12.127Z,101413.22
2022-08-21T05:26:45.391Z,101405.56
2022-08-21T05:29:13.217Z,101410.59
2022-08-21T05:31:39.750Z,101404.09
2022-08-21T05:34:06.126Z,101411.63
2022-08-21T05:36:32.702Z,101408.97
2022-08-21T05:39:00.383Z,101416.19
2022-08-21T05:41:26.748Z,101415.53
2022-08-21T05:43:53.070Z,101417.53
2022-08-21T05:46:19.459Z,101423.22
2022-08-21T05:48:46.116Z,101421.56
2022-08-21T05:51:14.575Z,101430.63
2022-08-21T05:53:41.433Z,101422.94
2022-08-21T05:56:09.402Z,101429.78
2022-08-21T05:58:36.280Z,101434.66
2022-08-21T06:01:03.540Z,101443.84
2022-08-21T06:03:31.123Z,101442.00
2022-08-21T06:05:57.783Z,101438.53
2022-08-21T06:08:24.336Z,101440.38
2022-08-21T06:10:51.634Z,101437.03
2022-08-21T06:13:19.703Z,101439.06
2022-08-21T06:15:46.300Z,101440.03
2022-08-21T06:18:12.697Z,101435.88
2022-08-21T06:20:39.246Z,101440.72
2022-08-21T06:23:05.811Z,101443.41
2022-08-21T06:25:32.187Z,101441.88
2022-08-21T06:28:01.368Z,101431.31
2022-08-21T06:30:29.023Z,101433.16
2022-08-21T06:32:55.407Z,101434.13
2022-08-21T06:35:21.840Z,101438.63
2022-08-21T06:37:48.144Z,101433.28
2022-08-21T06:40:14.495Z,101437.59
2022-08-21T06:42:41.352Z,101433.19
2022-08-21T06:45:09.574Z,101436.69
2022-08-21T06:47:37.234Z,101440.38
2022-08-21T06:50:03.840Z,101423.78
2022-08-21T06:52:30.171Z,101432.44
2022-08-21T06:54:56.509Z,101444.81
2022-08-21T06:57:22.847Z,101441.06
2022-08-21T06:59:49.157Z,101440.00
2022-08-21T07:02:15.497Z,101450.50
2022-08-21T07:04:43.146Z,101447.75
2022-08-21T07:07:09.508Z,101444.03
2022-08-21T07:09:35.863Z,101452.00
2022-08-21T07:12:02.939Z,101452.78
2022-08-21T07:14:29.241Z,101441.63
2022-08-21T07:16:55.597Z,101445.25
2022-08-21T07:19:22.112Z,101443.84
2022-08-21T07:21:49.795Z,101442.75
2022-08-21T07:24:16.159Z,101440.66
2022-08-21T07:26:42.507Z,101445.59
2022-08-21T07:29:09.082Z,101429.22
2022-08-21T07:31:35.415Z,101442.78
2022-08-21T07:34:01.722Z,101438.81
2022-08-21T07:36:28.034Z,101436.50
2022-08-21T07:38:55.710Z,101439.53
2022-08-21T07:41:23.106Z,101436.41
2022-08-21T07:43:49.675Z,101430.66
2022-08-21T07:46:19.175Z,101431.97
2022-08-21T07:48:45.506Z,101435.72
2022-08-21T07:51:13.237Z,101434.53
2022-08-21T07:53:39.999Z,101432.50
2022-08-21T07:56:08.542Z,101433.03
2022-08-21T07:58:35.081Z,101434.25
2022-08-21T08:01:01.497Z,101438.44
2022-08-21T08:03:29.099Z,101437.50
2022-08-21T08:05:55.840Z,101439.22
2022-08-21T08:08:22.173Z,101440.97
2022-08-21T08:10:48.522Z,101431.19
2022-08-21T08:13:16.321Z,101444.78
2022-08-21T08:15:42.846Z,101431.38
2022-08-21T08:18:09.267Z,101439.13
2022-08-21T08:20:35.558Z,101434.84
2022-08-21T08:23:02.090Z,101433.63
2022-08-21T08:25:31.815Z,101437.41
2022-08-21T08:28:03.731Z,101437.25
2022-08-21T08:30:44.095Z,101432.38
2022-08-21T08:33:10.426Z,101427.25
2022-08-21T08:35:36.758Z,101432.66
2022-08-21T08:38:05.496Z,101419.03
2022-08-21T08:40:38.567Z,101420.31
2022-08-21T08:43:09.306Z,101413.69
2022-08-21T08:45:38.303Z,101412.31
2022-08-21T08:48:14.162Z,101403.03
2022-08-21T08:50:42.083Z,101412.41
2022-08-21T08:53:11.735Z,101404.16
2022-08-21T08:55:39.550Z,101411.03
2022-08-21T08:58:06.010Z,101399.53
2022-08-21T09:00:32.482Z,101395.59
2022-08-21T09:03:00.456Z,101400.84
2022-08-21T09:05:29.234Z,101398.00
2022-08-21T09:08:03.191Z,101402.78
2022-08-21T09:10:35.173Z,101405.88
2022-08-21T09:13:08.574Z,101405.06
2022-08-21T09:15:44.406Z,101401.72
2022-08-21T09:18:21.710Z,101405.84
2022-08-21T09:21:03.375Z,101393.66
2022-08-21T09:23:34.811Z,101394.69
2022-08-21T09:26:06.047Z,101403.41
2022-08-21T09:28:32.954Z,101401.97
2022-08-21T09:30:59.301Z,101394.09
2022-08-21T09:33:25.685Z,101401.13
2022-08-21T09:35:54.563Z,101404.28
2022-08-21T09:38:26.757Z,101409.31
2022-08-21T09:40:56.986Z,101408.06
2022-08-21T09:43:24.234Z,101402.22
2022-08-21T09:46:01.549Z,101399.75
2022-08-21T09:48:32.615Z,101399.53
2022-08-21T09:51:08.586Z,101393.50
2022-08-21T09:53:36.033Z,101399.94
2022-08-21T09:56:04.279Z,101402.81
2022-08-21T09:58:31.862Z,101400.94
2022-08-21T10:00:59.029Z,101404.22
2022-08-21T10:03:25.459Z,101402.13
2022-08-21T10:05:57.742Z,101386.88
2022-08-21T10:08:27.174Z,101381.44
2022-08-21T10:10:56.648Z,101385.28
2022-08-21T10:13:28.527Z,101379.19
2022-08-21T10:16:05.845Z,101381.66
2022-08-21T10:18:35.642Z,101381.63
2022-08-21T10:21:03.442Z,101376.97
2022-08-21T10:23:37.950Z,101378.34
2022-08-21T10:26:13.847Z,101376.72
2022-08-21T10:28:45.015Z,101383.22
2022-08-21T10:31:15.984Z,101380.88
2022-08-21T10:33:45.232Z,101382.56
2022-08-21T10:36:14.775Z,101391.75
2022-08-21T10:39:12.173Z,101387.50
2022-08-21T10:41:48.410Z,101380.09
2022-08-21T10:44:23.908Z,101379.28
2022-08-21T10:46:53.123Z,101373.38
2022-08-21T10:49:23.232Z,101375.44
2022-08-21T10:51:55.200Z,101375.56
2022-08-21T10:54:28.556Z,101380.44
2022-08-21T10:56:57.124Z,101381.84
2022-08-21T10:59:29.267Z,101386.19
2022-08-21T11:01:59.586Z,101386.31
2022-08-21T11:04:29.930Z,101393.78
2022-08-21T11:07:19.707Z,101380.47
2022-08-21T11:09:49.179Z,101378.69
2022-08-21T11:12:21.626Z,101382.56
2022-08-21T11:14:55.046Z,101378.19
2022-08-21T11:17:31.097Z,101372.19
2022-08-21T11:20:00.423Z,101374.81
2022-08-21T11:22:30.030Z,101378.44
2022-08-21T11:25:01.403Z,101368.63
2022-08-21T11:27:31.864Z,101373.84
2022-08-21T11:29:59.295Z,101363.91
2022-08-21T11:32:40.287Z,101365.56
2022-08-21T11:35:12.298Z,101373.75
2022-08-21T11:37:45.430Z,101370.22
2022-08-21T11:40:19.910Z,101364.19
2022-08-21T11:42:51.185Z,101367.13
2022-08-21T11:45:22.494Z,101362.84
2022-08-21T11:47:57.247Z,101356.34
2022-08-21T11:50:34.136Z,101359.34
2022-08-21T11:53:05.997Z,101359.50
2022-08-21T11:55:36.509Z,101357.84
2022-08-21T11:58:05.890Z,101360.72
2022-08-21T12:00:34.261Z,101365.16
2022-08-21T12:03:08.122Z,101361.09
2022-08-21T12:05:37.205Z,101359.06
2022-08-21T12:08:06.132Z,101364.78
2022-08-21T12:10:35.156Z,101367.19
2022-08-21T12:13:07.223Z,101368.09
2022-08-21T12:15:33.535Z,101366.50
2022-08-21T12:18:00.737Z,101364.44
2022-08-21T12:20:38.711Z,101365.56
2022-08-21T12:23:07.287Z,101371.09
2022-08-21T12:25:42.780Z,101373.63
2022-08-21T12:28:10.275Z,101377.25
2022-08-21T12:30:38.755Z,101367.56
2022-08-21T12:33:06.439Z,101364.91
2022-08-21T12:35:33.707Z,101372.09
2022-08-21T12:38:01.729Z,101365.91
2022-08-21T12:40:30.856Z,101366.69
2022-08-21T12:43:00.269Z,101357.00
2022-08-21T12:45:29.128Z,101361.91
2022-08-21T12:47:57.871Z,101351.00
2022-08-21T12:50:27.226Z,101357.13
2022-08-21T12:52:58.046Z,101354.69
2022-08-21T12:55:28.083Z,101361.50
2022-08-21T12:57:54.448Z,101346.69
2022-08-21T13:00:23.740Z,101356.88
2022-08-21T13:02:51.208Z,101349.88
2022-08-21T13:05:24.888Z,101350.56
2022-08-21T13:07:51.357Z,101354.81
2022-08-21T13:10:20.109Z,101343.56
2022-08-21T13:12:47.127Z,101350.94
2022-08-21T13:15:14.386Z,101346.06
2022-08-21T13:17:46.884Z,101349.25
2022-08-21T13:20:19.951Z,101344.91
2022-08-21T13:22:46.292Z,101348.56
2022-08-21T13:25:13.344Z,101349.03
2022-08-21T13:27:39.986Z,101341.59
2022-08-21T13:30:08.505Z,101342.81
2022-08-21T13:32:36.308Z,101343.34
2022-08-21T13:35:10.131Z,101344.84
2022-08-21T13:37:36.598Z,101347.34
2022-08-21T13:40:03.328Z,101347.91
2022-08-21T13:42:29.807Z,101344.81
2022-08-21T13:44:56.131Z,101336.91
2022-08-21T13:47:22.534Z,101335.84
2022-08-21T13:49:51.687Z,101344.16
2022-08-21T13:52:23.203Z,101343.47
2022-08-21T13:54:54.335Z,101336.09
2022-08-21T13:57:25.336Z,101336.94
2022-08-21T13:59:51.844Z,101341.28
2022-08-21T14:02:20.886Z,101344.47
2022-08-21T14:04:53.262Z,101331.91
2022-08-21T14:07:25.366Z,101327.50
2022-08-21T14:09:51.712Z,101326.91
2022-08-21T14:12:25.567Z,101328.25
2022-08-21T14:14:52.467Z,101324.06
2022-08-21T14:17:29.167Z,101326.81
2022-08-21T14:20:00.681Z,101331.56
2022-08-21T14:22:33.758Z,101323.06
2022-08-21T14:25:01.279Z,101327.75
2022-08-21T14:27:30.114Z,101326.66
2022-08-21T14:29:59.131Z,101312.59
2022-08-21T14:32:27.811Z,101316.50
2022-08-21T14:34:54.628Z,101313.91
2022-08-21T14:37:21.523Z,101315.97
2022-08-21T14:39:49.340Z,101315.00
2022-08-21T14:42:15.706Z,101314.91
2022-08-21T14:44:42.015Z,101317.28
2022-08-21T14:47:08.752Z,101324.97
2022-08-21T14:49:35.078Z,101317.63
2022-08-21T14:52:01.543Z,101304.38
2022-08-21T14:54:31.004Z,101318.47
2022-08-21T14:57:01.399Z,101306.84
2022-08-21T14:59:27.762Z,101315.97
2022-08-21T15:01:54.132Z,101322.47
2022-08-21T15:04:20.575Z,101317.72
2022-08-21T15:06:46.896Z,101322.69
2022-08-21T15:09:13.238Z,101322.84
2022-08-21T15:11:42.574Z,101317.88
2022-08-21T15:14:13.996Z,101309.03
2022-08-21T15:16:40.323Z,101308.66
2022-08-21T15:19:06.640Z,101312.44
2022-08-21T15:21:32.934Z,101309.47
2022-08-21T15:23:59.254Z,101315.75
2022-08-21T15:26:25.623Z,101310.56
2022-08-21T15:28:52.203Z,101319.38
2022-08-21T15:31:19.877Z,101317.72
2022-08-21T15:33:46.219Z,101319.16
2022-08-21T15:36:12.551Z,101315.75
2022-08-21T15:38:38.877Z,101322.34
2022-08-21T15:41:05.596Z,101318.00
2022-08-21T15:43:36.032Z,101319.28
2022-08-21T15:46:02.392Z,101317.41
2022-08-21T15:48:30.050Z,101308.66
2022-08-21T15:50:56.382Z,101314.91
2022-08-21T15:53:22.773Z,101316.56
2022-08-21T15:55:49.134Z,101309.59
2022-08-21T15:58:16.404Z,101310.66
2022-08-21T16:00:44.044Z,101315.97
2022-08-21T16:03:11.904Z,101311.59
2022-08-21T16:05:39.538Z,101310.66
2022-08-21T16:08:05.857Z,101315.38
2022-08-21T16:10:32.322Z,101313.91
2022-08-21T16:13:01.619Z,101310.91
2022-08-21T16:15:28.063Z,101310.63
2022-08-21T16:17:54.698Z,101306.41
2022-08-21T16:20:23.075Z,101307.00
2022-08-21T16:22:51.048Z,101301.44
2022-08-21T16:25:17.747Z,101307.84
2022-08-21T16:27:45.971Z,101308.19
2022-08-21T16:30:13.073Z,101300.63
2022-08-21T16:32:39.440Z,101309.84
2022-08-21T16:35:05.956Z,101307.00
2022-08-21T16:37:32.284Z,101306.16
2022-08-21T16:40:00.024Z,101302.16
2022-08-21T16:42:26.774Z,101300.69
2022-08-21T16:44:53.935Z,101302.34
2022-08-21T16:47:26.345Z,101299.78
2022-08-21T16:49:54.633Z,101303.84
2022-08-21T16:52:20.968Z,101301.50
2022-08-21T16:54:47.276Z,101299.16
2022-08-21T16:57:15.281Z,101304.63
2022-08-21T16:59:41.842Z,101297.16
2022-08-21T17:02:16.105Z,101291.41
2022-08-21T17:04:42.411Z,101299.41
2022-08-21T17:07:08.737Z,101296.81
2022-08-21T17:09:35.071Z,101298.13
2022-08-21T17:12:01.405Z,101300.66
2022-08-21T17:14:29.125Z,101299.78
2022-08-21T17:16:56.040Z,101292.38
2022-08-21T17:19:22.607Z,101301.13
2022-08-21T17:21:48.943Z,101299.34
2022-08-21T17:24:15.409Z,101295.84
2022-08-21T17:26:41.910Z,101292.59
2022-08-21T17:29:08.239Z,101294.31
2022-08-21T17:31:36.290Z,101292.97
2022-08-21T17:34:03.031Z,101299.94
2022-08-21T17:36:29.814Z,101306.97
2022-08-21T17:38:57.031Z,101305.19
2022-08-21T17:41:23.889Z,101308.63
2022-08-21T17:43:50.758Z,101303.84
2022-08-21T17:46:19.617Z,101304.75
2022-08-21T17:48:47.594Z,101303.69
2022-08-21T17:51:14.066Z,101306.84
2022-08-21T17:53:40.383Z,101307.06
2022-08-21T17:56:07.438Z,101299.78
2022-08-21T17:58:33.824Z,101301.66
2022-08-21T18:01:02.149Z,101309.81
2022-08-21T18:03:28.494Z,101304.44
2022-08-21T18:05:59.573Z,101301.75
2022-08-21T18:08:26.231Z,101300.13
2022-08-21T18:10:52.933Z,101297.69
2022-08-21T18:13:22.119Z,101295.63
2022-08-21T18:15:50.024Z,101296.66
2022-08-21T18:18:16.353Z,101295.03
2022-08-21T18:20:42.707Z,101299.63
2022-08-21T18:23:10.391Z,101291.13
2022-08-21T18:25:37.036Z,101300.13
2022-08-21T18:28:05.768Z,101304.06
2022-08-21T18:30:32.618Z,101304.13
2022-08-21T18:32:59.076Z,101310.78
2022-08-21T18:35:25.620Z,101310.63
2022-08-21T18:37:51.986Z,101311.88
2022-08-21T18:40:19.882Z,101308.56
2022-08-21T18:42:58.491Z,101317.09
2022-08-21T18:45:25.094Z,101318.50
2022-08-21T18:47:52.913Z,101316.88
2022-08-21T18:50:21.071Z,101316.03
2022-08-21T18:52:52.852Z,101326.91
2022-08-21T18:55:22.427Z,101330.88
2022-08-21T18:57:48.784Z,101326.09
2022-08-21T19:00:16.603Z,101324.84
2022-08-21T19:02:44.163Z,101329.44
2022-08-21T19:05:11.590Z,101327.63
2022-08-21T19:07:38.282Z,101325.97
2022-08-21T19:10:24.611Z,101331.19
2022-08-21T19:12:53.081Z,101328.69
2022-08-21T19:15:21.091Z,101329.50
2022-08-21T19:17:51.334Z,101329.75
2022-08-21T19:23:06.147Z,101325.41
2022-08-21T19:25:34.631Z,101335.59
2022-08-21T19:28:10.913Z,101330.59
2022-08-21T19:30:38.254Z,101335.38
2022-08-21T19:33:05.555Z,101332.44
2022-08-21T19:35:32.507Z,101342.41
2022-08-21T19:37:58.843Z,101340.34
2022-08-21T19:40:26.263Z,101352.38
2022-08-21T19:42:52.670Z,101349.03
2022-08-21T19:45:21.849Z,101343.44
2022-08-21T19:47:52.843Z,101353.41
2022-08-21T19:50:21.339Z,101348.22
2022-08-21T19:52:55.665Z,101350.47
2022-08-21T19:55:23.242Z,101344.47
2022-08-21T19:57:49.902Z,101349.84
2022-08-21T20:00:17.134Z,101347.34
2022-08-21T20:02:48.150Z,101351.13
2022-08-21T20:05:14.777Z,101349.47
2022-08-21T20:07:41.111Z,101352.56
2022-08-21T20:10:07.647Z,101341.34
2022-08-21T20:12:36.948Z,101353.34
2022-08-21T20:15:04.204Z,101346.53
2022-08-21T20:17:34.168Z,101345.69
2022-08-21T20:20:01.814Z,101350.47
2022-08-21T20:22:28.767Z,101346.50
2022-08-21T20:24:55.747Z,101358.09
2022-08-21T20:27:23.498Z,101346.06
2022-08-21T20:29:49.974Z,101346.47
2022-08-21T20:32:16.487Z,101348.56
2022-08-21T20:34:45.066Z,101353.31
2022-08-21T20:43:03.471Z,101352.44
2022-08-21T20:45:32.011Z,101357.34
2022-08-21T20:48:01.238Z,101348.41
2022-08-21T20:50:29.898Z,101357.09
2022-08-21T20:53:01.939Z,101350.66
2022-08-21T20:55:29.551Z,101352.50
2022-08-21T20:58:00.238Z,101352.25
2022-08-21T21:00:27.557Z,101349.75
2022-08-21T21:02:58.828Z,101346.16
2022-08-21T21:05:28.163Z,101346.97
2022-08-21T21:08:00.299Z,101353.75
2022-08-21T21:10:29.724Z,101348.81
2022-08-21T21:12:59.946Z,101350.59
2022-08-21T21:15:29.290Z,101349.72
2022-08-21T21:18:01.096Z,101348.44
2022-08-21T21:20:31.755Z,101343.03
2022-08-21T21:23:05.785Z,101348.53
2022-08-21T21:25:40.517Z,101338.53
2022-08-21T21:28:08.500Z,101348.25
2022-08-21T21:30:41.805Z,101353.19
2022-08-21T21:33:13.287Z,101346.31
2022-08-21T21:35:49.111Z,101345.69
2022-08-21T21:38:21.726Z,101349.38
2022-08-21T21:40:53.336Z,101357.03
2022-08-21T21:43:26.732Z,101350.00
2022-08-21T21:46:06.040Z,101347.22
2022-08-21T21:48:37.871Z,101339.56
2022-08-21T21:51:11.981Z,101346.34
2022-08-21T21:53:51.495Z,101356.88
2022-08-21T21:56:23.330Z,101351.88
2022-08-21T21:59:08.225Z,101352.25
2022-08-21T22:01:37.604Z,101346.63
2022-08-21T22:04:11.419Z,101352.38
2022-08-21T22:06:48.575Z,101355.63
2022-08-21T22:09:24.059Z,101352.88
2022-08-21T22:11:57.815Z,101350.09
2022-08-21T22:14:29.742Z,101343.94
2022-08-21T22:16:56.841Z,101354.69
2022-08-21T22:19:25.597Z,101354.88
2022-08-21T22:21:53.679Z,101356.91
2022-08-21T22:24:24.721Z,101349.22
2022-08-21T22:26:57.971Z,101352.09
2022-08-21T22:29:41.603Z,101345.03
2022-08-21T22:32:09.099Z,101345.69
2022-08-21T22:34:35.867Z,101352.09
2022-08-21T22:37:03.331Z,101351.84
2022-08-21T22:39:38.507Z,101341.44
2022-08-21T22:42:07.515Z,101347.81
2022-08-21T22:44:47.016Z,101342.00
2022-08-21T22:47:18.703Z,101343.84
2022-08-21T22:49:47.955Z,101339.06
2022-08-21T22:52:20.238Z,101336.56
2022-08-21T22:54:51.670Z,101331.00
2022-08-21T22:57:24.758Z,101334.53
2022-08-21T22:59:53.613Z,101332.47
2022-08-21T23:02:33.055Z,101339.53
2022-08-21T23:05:00.884Z,101334.16
2022-08-21T23:10:26.154Z,101336.19
2022-08-21T23:12:54.365Z,101334.69
2022-08-21T23:15:21.400Z,101333.22
2022-08-21T23:17:53.035Z,101320.38
2022-08-21T23:20:23.171Z,101325.09
2022-08-21T23:22:53.231Z,101323.44
2022-08-21T23:25:33.020Z,101319.91
2022-08-21T23:28:04.016Z,101323.06
2022-08-21T23:30:36.767Z,101320.81
2022-08-21T23:33:09.926Z,101317.09
2022-08-21T23:35:42.297Z,101314.22
2022-08-21T23:38:14.242Z,101314.88
2022-08-21T23:43:33.731Z,101319.78
2022-08-21T23:46:06.207Z,101318.31
2022-08-21T23:48:42.310Z,101318.25
2022-08-21T23:51:10.970Z,101323.09
2022-08-21T23:53:44.261Z,101321.59
2022-08-21T23:56:22.631Z,101321.34
2022-08-21T23:58:55.285Z,101323.19
